McChord Air Force Base Tacoma US
ICAO: KTCM
IATA: TCM
Category: Large
Scheduled Services: No

Elevation: 322 ft
TransAlt. 18000 ft.

Airport Communications:
SEATTLE APP/DEP:126.5
ATIS:27.01
GND:125.15
PMSV METRO:34.25
COMD POST:34.94
PTD:37.22
TWR:124.8

KTCM Zoom In..

Runways:

(A) RW 16 length 10108 ft width 150 ft
ILS 109.90 / hdg 160

(B) RW 34 length 10108 ft width 150 ft
ILS 108.50 / hdg 340

Location; KTCM
Day. 11 / Time. 08.58 Zulu
* Altimeter: 29.97
* Temperature: 15° c. 59°f.
* Wind from: KTC° Speed M kn.
Dewpoint: 10° c.
Visibility: 10 Statute Miles.
Clouds: Clear (automated report).

KTCM 110858Z AUTO 00000KT 10SM CLR 15/10 A2997 RMK AO2 SLP151 T01500100 56002 $

Going to: --> -->


Wind From KTC°
Speed M kn.

 
 
jpsmedia worldairports.se 2020   terms of use